Roscommon, MI (48653)

2:15 AM EDT on August 29, 2015 (GMT -0400)
Almeda Beach, Higgins Lake | | Change Station
CLOSE
Current Station
Personal Weather Station
Location: Roscommon, MI
Elevation: 1161 ft
Nearby Weather Stations

Elev 1161 ft 44.44 °N, 84.67 °W | Updated 4 minutes ago

Rain
Rain
60.6 °F
Feels Like 60.6 °F
N
0.0
Wind Variable Wind from SW

Today
High -- | Low -- °F
--% Chance of Precip.
Yesterday
High -- | Low -- °F
Precip. -- in
6:57 AM 8:20 PM
Full, 100% visible
Pressure 30.12 in
Visibility 10.0 miles
Clouds Overcast 10000 ft
Dew Point 56 °F
Humidity 86%
Rainfall 0.02 in
Snow Depth Not available.
UV 0 out of 12
Pollen 10.10 out of 12
Air Quality Not available.
Flu Activity Not available.
METAR KHTL 290553Z AUTO 28003KT 10SM OVC100 17/14 A3013 RMK AO2 RAE49 SLP200 P0000 60000 T01720139 10200 20172 58002
Pressure 30.12 in
Visibility 10.0 miles
Clouds Overcast 10000 ft
Dew Point 56 °F
Humidity 86%
Rainfall 0.02 in
Snow Depth Not available.
UV 0 out of 12
Pollen 10.10 out of 12
Air Quality Not available.
Flu Activity Not available.
METAR KHTL 290553Z AUTO 28003KT 10SM OVC100 17/14 A3013 RMK AO2 RAE49 SLP200 P0000 60000 T01720139 10200 20172 58002
Nowcast | as of 2:00 am EDT on August 29, 2015

At 3 am...rain. Temperature 62. Southwest winds 6 mph. At 5 am...rain. Temperature 61. Southwest winds 6 mph. At 7 am...rain. Temperature 60. South winds 5 mph. At 9 am...numerous showers. Temperature 61. Light winds.

×

10-Day Weather Forecast

×

Almanac

Astronomy

Aug. 29, 2015 Rise Set
Actual Time
Civil Twilight
Nautical Twilight
Astronomical Twilight
Moon
Length of Visible Light
Length of Day
Tomorrow will be .
, % of the Moon is Illuminated

Today's Extremes

State Highs State Lows

Community

WunderPhotos

Upload Photos

1,850,622 photos uploaded!

WunderBlogs® & News

Nearby

Air Quality

  Air Quality AQ Index Pollutant
Not available.

Snow Depth

Station Depth Elevation

Earthquake Activity

City Distance Mag. Time & Date
Minimum magnitude displayed is 2.5.

Coastal Water Temperatures

Place Temperature

Stations

Nearby Weather Stations

Station Location Temp. Windchill Dew Point Humidity Wind Precip. Elev Updated Type